sensor_id;sensor_type;location;lat;lon;timestamp;temperature;humidity
67064;SHT30;58476;48.072;11.970;2023-05-10T00:00:47;22.77;53.35
67064;SHT30;58476;48.072;11.970;2023-05-10T00:03:12;22.79;53.30
67064;SHT30;58476;48.072;11.970;2023-05-10T00:05:37;22.79;53.30
67064;SHT30;58476;48.072;11.970;2023-05-10T00:08:03;22.81;53.08
67064;SHT30;58476;48.072;11.970;2023-05-10T00:10:28;22.78;52.96
67064;SHT30;58476;48.072;11.970;2023-05-10T00:12:53;22.83;53.21
67064;SHT30;58476;48.072;11.970;2023-05-10T00:15:19;22.84;53.26
67064;SHT30;58476;48.072;11.970;2023-05-10T00:17:44;22.83;53.24
67064;SHT30;58476;48.072;11.970;2023-05-10T00:20:10;22.84;53.22
67064;SHT30;58476;48.072;11.970;2023-05-10T00:22:35;22.84;53.31
67064;SHT30;58476;48.072;11.970;2023-05-10T00:25:01;22.88;53.31
67064;SHT30;58476;48.072;11.970;2023-05-10T00:27:26;22.88;53.25
67064;SHT30;58476;48.072;11.970;2023-05-10T00:29:51;22.88;53.22
67064;SHT30;58476;48.072;11.970;2023-05-10T00:32:17;22.88;53.15
67064;SHT30;58476;48.072;11.970;2023-05-10T00:34:42;22.87;53.26
67064;SHT30;58476;48.072;11.970;2023-05-10T00:37:07;22.85;53.27
67064;SHT30;58476;48.072;11.970;2023-05-10T00:39:33;22.87;53.17
67064;SHT30;58476;48.072;11.970;2023-05-10T00:41:58;22.84;53.15
67064;SHT30;58476;48.072;11.970;2023-05-10T00:44:25;22.81;53.16
67064;SHT30;58476;48.072;11.970;2023-05-10T00:46:50;22.79;53.27
67064;SHT30;58476;48.072;11.970;2023-05-10T00:49:16;22.79;53.30
67064;SHT30;58476;48.072;11.970;2023-05-10T00:51:41;22.77;53.44
67064;SHT30;58476;48.072;11.970;2023-05-10T00:54:07;22.77;53.51
67064;SHT30;58476;48.072;11.970;2023-05-10T00:56:32;22.75;53.51
67064;SHT30;58476;48.072;11.970;2023-05-10T00:58:58;22.72;53.63
67064;SHT30;58476;48.072;11.970;2023-05-10T01:01:24;22.72;53.70
67064;SHT30;58476;48.072;11.970;2023-05-10T01:03:50;22.69;53.62
67064;SHT30;58476;48.072;11.970;2023-05-10T01:06:16;22.69;53.58
67064;SHT30;58476;48.072;11.970;2023-05-10T01:08:41;22.67;53.66
67064;SHT30;58476;48.072;11.970;2023-05-10T01:11:07;22.65;53.69
67064;SHT30;58476;48.072;11.970;2023-05-10T01:13:35;22.64;53.75
67064;SHT30;58476;48.072;11.970;2023-05-10T01:16:01;22.64;53.77
67064;SHT30;58476;48.072;11.970;2023-05-10T01:18:28;22.61;53.79
67064;SHT30;58476;48.072;11.970;2023-05-10T01:24:06;22.60;53.94
67064;SHT30;58476;48.072;11.970;2023-05-10T01:29:43;22.57;53.91
67064;SHT30;58476;48.072;11.970;2023-05-10T01:37:16;22.55;53.86
67064;SHT30;58476;48.072;11.970;2023-05-10T01:42:47;22.54;53.94
67064;SHT30;58476;48.072;11.970;2023-05-10T01:45:21;22.53;54.04
67064;SHT30;58476;48.072;11.970;2023-05-10T01:47:54;22.51;53.97
67064;SHT30;58476;48.072;11.970;2023-05-10T01:50:24;22.51;54.03
67064;SHT30;58476;48.072;11.970;2023-05-10T01:52:54;22.48;54.03
67064;SHT30;58476;48.072;11.970;2023-05-10T01:55:20;22.50;54.05
67064;SHT30;58476;48.072;11.970;2023-05-10T01:57:52;22.48;54.05
67064;SHT30;58476;48.072;11.970;2023-05-10T02:00:22;22.50;54.06
67064;SHT30;58476;48.072;11.970;2023-05-10T02:02:51;22.48;53.99
67064;SHT30;58476;48.072;11.970;2023-05-10T02:05:18;22.46;53.74
67064;SHT30;58476;48.072;11.970;2023-05-10T02:07:46;22.48;53.62
67064;SHT30;58476;48.072;11.970;2023-05-10T02:10:13;22.48;53.75
67064;SHT30;58476;48.072;11.970;2023-05-10T02:12:42;22.51;53.83
67064;SHT30;58476;48.072;11.970;2023-05-10T02:15:10;22.57;53.92
67064;SHT30;58476;48.072;11.970;2023-05-10T02:17:37;22.58;53.92
67064;SHT30;58476;48.072;11.970;2023-05-10T02:20:07;22.60;53.86
67064;SHT30;58476;48.072;11.970;2023-05-10T02:22:35;22.63;53.80
67064;SHT30;58476;48.072;11.970;2023-05-10T02:25:02;22.63;53.80
67064;SHT30;58476;48.072;11.970;2023-05-10T02:27:28;22.67;53.76
67064;SHT30;58476;48.072;11.970;2023-05-10T02:29:55;22.67;53.69
67064;SHT30;58476;48.072;11.970;2023-05-10T02:32:22;22.69;53.74
67064;SHT30;58476;48.072;11.970;2023-05-10T02:34:49;22.69;53.64
67064;SHT30;58476;48.072;11.970;2023-05-10T02:37:15;22.68;53.67
67064;SHT30;58476;48.072;11.970;2023-05-10T02:39:41;22.69;53.65
67064;SHT30;58476;48.072;11.970;2023-05-10T02:42:06;22.68;53.70
67064;SHT30;58476;48.072;11.970;2023-05-10T02:44:33;22.71;53.71
67064;SHT30;58476;48.072;11.970;2023-05-10T02:46:59;22.72;53.65
67064;SHT30;58476;48.072;11.970;2023-05-10T02:49:24;22.71;53.69
67064;SHT30;58476;48.072;11.970;2023-05-10T02:51:56;22.74;53.64
67064;SHT30;58476;48.072;11.970;2023-05-10T02:54:29;22.71;53.63
67064;SHT30;58476;48.072;11.970;2023-05-10T02:56:58;22.72;53.64
67064;SHT30;58476;48.072;11.970;2023-05-10T02:59:23;22.75;53.66
67064;SHT30;58476;48.072;11.970;2023-05-10T03:01:49;22.77;53.65
67064;SHT30;58476;48.072;11.970;2023-05-10T03:04:14;22.72;53.60
67064;SHT30;58476;48.072;11.970;2023-05-10T03:06:39;22.74;53.62
67064;SHT30;58476;48.072;11.970;2023-05-10T03:09:05;22.69;53.57
67064;SHT30;58476;48.072;11.970;2023-05-10T03:11:43;22.67;53.55
67064;SHT30;58476;48.072;11.970;2023-05-10T03:17:15;22.63;53.57
67064;SHT30;58476;48.072;11.970;2023-05-10T03:19:53;22.60;53.79
67064;SHT30;58476;48.072;11.970;2023-05-10T03:22:25;22.61;53.90
67064;SHT30;58476;48.072;11.970;2023-05-10T03:24:53;22.60;53.88
67064;SHT30;58476;48.072;11.970;2023-05-10T03:27:22;22.57;53.99
67064;SHT30;58476;48.072;11.970;2023-05-10T03:29:48;22.57;54.03
67064;SHT30;58476;48.072;11.970;2023-05-10T03:32:14;22.54;54.04
67064;SHT30;58476;48.072;11.970;2023-05-10T03:34:42;22.54;53.99
67064;SHT30;58476;48.072;11.970;2023-05-10T03:37:08;22.50;54.01
67064;SHT30;58476;48.072;11.970;2023-05-10T03:39:33;22.51;53.98
67064;SHT30;58476;48.072;11.970;2023-05-10T03:42:00;22.50;54.01
67064;SHT30;58476;48.072;11.970;2023-05-10T03:44:25;22.48;54.01
67064;SHT30;58476;48.072;11.970;2023-05-10T03:46:50;22.50;53.98
67064;SHT30;58476;48.072;11.970;2023-05-10T03:49:16;22.48;54.06
67064;SHT30;58476;48.072;11.970;2023-05-10T03:51:41;22.44;53.93
67064;SHT30;58476;48.072;11.970;2023-05-10T03:54:07;22.47;54.04
67064;SHT30;58476;48.072;11.970;2023-05-10T03:56:32;22.44;54.15
67064;SHT30;58476;48.072;11.970;2023-05-10T03:58:58;22.43;54.18
67064;SHT30;58476;48.072;11.970;2023-05-10T04:01:24;22.43;54.08
67064;SHT30;58476;48.072;11.970;2023-05-10T04:03:49;22.46;54.21
67064;SHT30;58476;48.072;11.970;2023-05-10T04:06:14;22.46;54.31
67064;SHT30;58476;48.072;11.970;2023-05-10T04:08:39;22.44;54.32
67064;SHT30;58476;48.072;11.970;2023-05-10T04:11:09;22.47;54.41
67064;SHT30;58476;48.072;11.970;2023-05-10T04:13:35;22.47;54.53
67064;SHT30;58476;48.072;11.970;2023-05-10T04:16:01;22.51;54.64
67064;SHT30;58476;48.072;11.970;2023-05-10T04:18:26;22.53;54.81
67064;SHT30;58476;48.072;11.970;2023-05-10T04:20:52;22.53;54.72
67064;SHT30;58476;48.072;11.970;2023-05-10T04:23:17;22.57;54.88
67064;SHT30;58476;48.072;11.970;2023-05-10T04:25:42;22.58;54.94
67064;SHT30;58476;48.072;11.970;2023-05-10T04:28:08;22.64;54.85
67064;SHT30;58476;48.072;11.970;2023-05-10T04:30:34;22.64;54.76
67064;SHT30;58476;48.072;11.970;2023-05-10T04:32:59;22.67;54.89
67064;SHT30;58476;48.072;11.970;2023-05-10T04:35:24;22.71;54.81
67064;SHT30;58476;48.072;11.970;2023-05-10T04:37:50;22.75;54.70
67064;SHT30;58476;48.072;11.970;2023-05-10T04:40:15;22.72;54.55
67064;SHT30;58476;48.072;11.970;2023-05-10T04:42:41;22.74;54.54
67064;SHT30;58476;48.072;11.970;2023-05-10T04:45:06;22.77;54.44
67064;SHT30;58476;48.072;11.970;2023-05-10T04:47:32;22.79;54.50
67064;SHT30;58476;48.072;11.970;2023-05-10T04:49:58;22.77;54.68
67064;SHT30;58476;48.072;11.970;2023-05-10T04:52:25;22.81;54.76
67064;SHT30;58476;48.072;11.970;2023-05-10T04:54:51;22.88;54.69
67064;SHT30;58476;48.072;11.970;2023-05-10T04:57:16;22.95;55.00
67064;SHT30;58476;48.072;11.970;2023-05-10T04:59:41;22.98;54.84
67064;SHT30;58476;48.072;11.970;2023-05-10T05:02:07;23.01;55.02
67064;SHT30;58476;48.072;11.970;2023-05-10T05:04:32;23.06;55.26
67064;SHT30;58476;48.072;11.970;2023-05-10T05:06:57;23.06;55.26
67064;SHT30;58476;48.072;11.970;2023-05-10T05:09:23;23.08;55.20
67064;SHT30;58476;48.072;11.970;2023-05-10T05:11:48;23.05;55.21
67064;SHT30;58476;48.072;11.970;2023-05-10T05:14:13;23.04;55.19
67064;SHT30;58476;48.072;11.970;2023-05-10T05:16:39;23.02;55.17
67064;SHT30;58476;48.072;11.970;2023-05-10T05:19:04;22.99;55.10
67064;SHT30;58476;48.072;11.970;2023-05-10T05:21:29;22.95;55.05
67064;SHT30;58476;48.072;11.970;2023-05-10T05:23:55;22.90;55.22
67064;SHT30;58476;48.072;11.970;2023-05-10T05:26:20;22.87;55.01
67064;SHT30;58476;48.072;11.970;2023-05-10T05:28:45;22.81;54.87
67064;SHT30;58476;48.072;11.970;2023-05-10T05:31:11;22.78;54.94
67064;SHT30;58476;48.072;11.970;2023-05-10T05:33:36;22.78;54.73
67064;SHT30;58476;48.072;11.970;2023-05-10T05:36:05;22.74;55.14
67064;SHT30;58476;48.072;11.970;2023-05-10T05:38:31;22.71;55.31
67064;SHT30;58476;48.072;11.970;2023-05-10T05:40:56;22.69;55.31
67064;SHT30;58476;48.072;11.970;2023-05-10T05:43:22;22.68;55.19
67064;SHT30;58476;48.072;11.970;2023-05-10T05:45:47;22.67;55.31
67064;SHT30;58476;48.072;11.970;2023-05-10T05:48:12;22.65;55.33
67064;SHT30;58476;48.072;11.970;2023-05-10T05:50:38;22.64;55.26
67064;SHT30;58476;48.072;11.970;2023-05-10T05:53:03;22.60;55.37
67064;SHT30;58476;48.072;11.970;2023-05-10T05:55:28;22.58;55.58
67064;SHT30;58476;48.072;11.970;2023-05-10T05:57:54;22.57;55.48
67064;SHT30;58476;48.072;11.970;2023-05-10T06:00:19;22.51;55.62
67064;SHT30;58476;48.072;11.970;2023-05-10T06:02:44;22.53;55.62
67064;SHT30;58476;48.072;11.970;2023-05-10T06:05:10;22.51;55.68
67064;SHT30;58476;48.072;11.970;2023-05-10T06:07:35;22.51;55.50
67064;SHT30;58476;48.072;11.970;2023-05-10T06:10:01;22.51;55.61
67064;SHT30;58476;48.072;11.970;2023-05-10T06:12:26;22.47;55.63
67064;SHT30;58476;48.072;11.970;2023-05-10T06:14:51;22.47;55.61
67064;SHT30;58476;48.072;11.970;2023-05-10T06:17:16;22.46;55.68
67064;SHT30;58476;48.072;11.970;2023-05-10T06:19:42;22.44;55.69
67064;SHT30;58476;48.072;11.970;2023-05-10T06:22:07;22.44;55.72
67064;SHT30;58476;48.072;11.970;2023-05-10T06:24:33;22.41;56.08
67064;SHT30;58476;48.072;11.970;2023-05-10T06:26:58;22.40;57.64
67064;SHT30;58476;48.072;11.970;2023-05-10T06:29:23;22.39;56.51
67064;SHT30;58476;48.072;11.970;2023-05-10T06:31:48;22.36;56.61
67064;SHT30;58476;48.072;11.970;2023-05-10T06:34:14;22.37;56.80
67064;SHT30;58476;48.072;11.970;2023-05-10T06:36:39;22.33;56.30
67064;SHT30;58476;48.072;11.970;2023-05-10T06:39:04;22.40;56.66
67064;SHT30;58476;48.072;11.970;2023-05-10T06:41:30;22.43;56.63
67064;SHT30;58476;48.072;11.970;2023-05-10T06:43:55;22.43;56.34
67064;SHT30;58476;48.072;11.970;2023-05-10T06:46:20;22.44;56.29
67064;SHT30;58476;48.072;11.970;2023-05-10T06:48:46;22.46;56.31
67064;SHT30;58476;48.072;11.970;2023-05-10T06:51:11;22.47;56.40
67064;SHT30;58476;48.072;11.970;2023-05-10T06:53:36;22.47;56.23
67064;SHT30;58476;48.072;11.970;2023-05-10T06:56:02;22.50;56.17
67064;SHT30;58476;48.072;11.970;2023-05-10T06:58:27;22.51;56.21
67064;SHT30;58476;48.072;11.970;2023-05-10T07:00:52;22.53;56.02
67064;SHT30;58476;48.072;11.970;2023-05-10T07:03:18;22.53;55.82
67064;SHT30;58476;48.072;11.970;2023-05-10T07:05:43;22.55;55.98
67064;SHT30;58476;48.072;11.970;2023-05-10T07:08:08;22.58;55.98
67064;SHT30;58476;48.072;11.970;2023-05-10T07:10:34;22.58;55.82
67064;SHT30;58476;48.072;11.970;2023-05-10T07:12:59;22.58;55.78
67064;SHT30;58476;48.072;11.970;2023-05-10T07:15:24;22.60;55.91
67064;SHT30;58476;48.072;11.970;2023-05-10T07:17:50;22.60;56.16
67064;SHT30;58476;48.072;11.970;2023-05-10T07:20:15;22.60;55.97
67064;SHT30;58476;48.072;11.970;2023-05-10T07:22:40;22.63;55.76
67064;SHT30;58476;48.072;11.970;2023-05-10T07:25:06;22.61;55.69
67064;SHT30;58476;48.072;11.970;2023-05-10T07:27:31;22.58;55.88
67064;SHT30;58476;48.072;11.970;2023-05-10T07:29:57;22.60;55.73
67064;SHT30;58476;48.072;11.970;2023-05-10T07:32:22;22.65;56.00
67064;SHT30;58476;48.072;11.970;2023-05-10T07:34:47;22.64;55.70
67064;SHT30;58476;48.072;11.970;2023-05-10T07:37:13;22.63;56.23
67064;SHT30;58476;48.072;11.970;2023-05-10T07:39:38;22.63;55.66
67064;SHT30;58476;48.072;11.970;2023-05-10T07:42:04;22.60;55.70
67064;SHT30;58476;48.072;11.970;2023-05-10T07:44:29;22.61;55.52
67064;SHT30;58476;48.072;11.970;2023-05-10T07:46:54;22.58;55.66
67064;SHT30;58476;48.072;11.970;2023-05-10T07:49:20;22.58;55.94
67064;SHT30;58476;48.072;11.970;2023-05-10T07:51:45;22.57;55.87
67064;SHT30;58476;48.072;11.970;2023-05-10T07:54:10;22.58;55.76
67064;SHT30;58476;48.072;11.970;2023-05-10T07:56:35;22.55;55.84
67064;SHT30;58476;48.072;11.970;2023-05-10T07:59:02;22.58;56.19
67064;SHT30;58476;48.072;11.970;2023-05-10T08:01:30;22.55;55.96
67064;SHT30;58476;48.072;11.970;2023-05-10T08:03:56;22.57;56.12
67064;SHT30;58476;48.072;11.970;2023-05-10T08:06:21;22.53;55.96
67064;SHT30;58476;48.072;11.970;2023-05-10T08:08:47;22.50;56.35
67064;SHT30;58476;48.072;11.970;2023-05-10T08:11:13;22.48;56.25
67064;SHT30;58476;48.072;11.970;2023-05-10T08:13:38;22.48;56.17
67064;SHT30;58476;48.072;11.970;2023-05-10T08:16:04;22.47;56.37
67064;SHT30;58476;48.072;11.970;2023-05-10T08:18:29;22.51;56.25
67064;SHT30;58476;48.072;11.970;2023-05-10T08:20:54;22.53;55.88
67064;SHT30;58476;48.072;11.970;2023-05-10T08:23:20;22.48;56.15
67064;SHT30;58476;48.072;11.970;2023-05-10T08:25:45;22.47;56.18
67064;SHT30;58476;48.072;11.970;2023-05-10T08:28:10;22.48;56.11
67064;SHT30;58476;48.072;11.970;2023-05-10T08:30:35;22.47;56.03
67064;SHT30;58476;48.072;11.970;2023-05-10T08:33:01;22.47;56.28
67064;SHT30;58476;48.072;11.970;2023-05-10T08:35:26;22.46;56.54
67064;SHT30;58476;48.072;11.970;2023-05-10T08:37:51;22.43;56.57
67064;SHT30;58476;48.072;11.970;2023-05-10T08:40:19;22.43;56.80
67064;SHT30;58476;48.072;11.970;2023-05-10T08:42:51;22.41;56.81
67064;SHT30;58476;48.072;11.970;2023-05-10T08:45:19;22.41;56.93
67064;SHT30;58476;48.072;11.970;2023-05-10T08:47:47;22.40;56.95
67064;SHT30;58476;48.072;11.970;2023-05-10T08:50:13;22.39;56.89
67064;SHT30;58476;48.072;11.970;2023-05-10T08:52:40;22.37;56.93
67064;SHT30;58476;48.072;11.970;2023-05-10T08:55:05;22.37;56.98
67064;SHT30;58476;48.072;11.970;2023-05-10T08:57:31;22.37;57.01
67064;SHT30;58476;48.072;11.970;2023-05-10T08:59:56;22.37;57.04
67064;SHT30;58476;48.072;11.970;2023-05-10T09:02:23;22.37;57.13
67064;SHT30;58476;48.072;11.970;2023-05-10T09:04:48;22.40;56.85
67064;SHT30;58476;48.072;11.970;2023-05-10T09:07:13;22.41;56.69
67064;SHT30;58476;48.072;11.970;2023-05-10T09:09:39;22.41;56.38
67064;SHT30;58476;48.072;11.970;2023-05-10T09:12:05;22.46;56.41
67064;SHT30;58476;48.072;11.970;2023-05-10T09:14:30;22.50;56.34
67064;SHT30;58476;48.072;11.970;2023-05-10T09:16:59;22.51;56.21
67064;SHT30;58476;48.072;11.970;2023-05-10T09:19:24;22.54;55.94
67064;SHT30;58476;48.072;11.970;2023-05-10T09:21:50;22.57;55.76
67064;SHT30;58476;48.072;11.970;2023-05-10T09:24:15;22.61;55.79
67064;SHT30;58476;48.072;11.970;2023-05-10T09:26:47;22.64;55.51
67064;SHT30;58476;48.072;11.970;2023-05-10T09:29:13;22.68;55.54
67064;SHT30;58476;48.072;11.970;2023-05-10T09:31:49;22.71;55.54
67064;SHT30;58476;48.072;11.970;2023-05-10T09:34:18;22.71;55.48
67064;SHT30;58476;48.072;11.970;2023-05-10T09:36:55;22.77;55.29
67064;SHT30;58476;48.072;11.970;2023-05-10T09:39:30;22.78;55.19
67064;SHT30;58476;48.072;11.970;2023-05-10T09:41:55;22.78;55.18
67064;SHT30;58476;48.072;11.970;2023-05-10T09:44:20;22.75;55.20
67064;SHT30;58476;48.072;11.970;2023-05-10T09:46:50;22.78;55.21
67064;SHT30;58476;48.072;11.970;2023-05-10T09:49:15;22.75;55.08
67064;SHT30;58476;48.072;11.970;2023-05-10T09:51:40;22.78;55.13
67064;SHT30;58476;48.072;11.970;2023-05-10T09:54:10;22.81;55.15
67064;SHT30;58476;48.072;11.970;2023-05-10T09:56:36;22.78;55.20
67064;SHT30;58476;48.072;11.970;2023-05-10T09:59:02;22.79;55.22
67064;SHT30;58476;48.072;11.970;2023-05-10T10:01:28;22.77;55.22
67064;SHT30;58476;48.072;11.970;2023-05-10T10:03:54;22.78;55.28
67064;SHT30;58476;48.072;11.970;2023-05-10T10:06:19;22.75;55.44
67064;SHT30;58476;48.072;11.970;2023-05-10T10:08:45;22.75;55.44
67064;SHT30;58476;48.072;11.970;2023-05-10T10:11:11;22.71;55.52
67064;SHT30;58476;48.072;11.970;2023-05-10T10:13:36;22.71;55.58
67064;SHT30;58476;48.072;11.970;2023-05-10T10:16:02;22.71;55.61
67064;SHT30;58476;48.072;11.970;2023-05-10T10:18:28;22.69;55.64
67064;SHT30;58476;48.072;11.970;2023-05-10T10:20:55;22.67;55.68
67064;SHT30;58476;48.072;11.970;2023-05-10T10:23:21;22.67;55.72
67064;SHT30;58476;48.072;11.970;2023-05-10T10:25:46;22.67;55.74
67064;SHT30;58476;48.072;11.970;2023-05-10T10:28:23;22.65;55.73
67064;SHT30;58476;48.072;11.970;2023-05-10T10:30:51;22.63;55.93
67064;SHT30;58476;48.072;11.970;2023-05-10T10:33:51;22.58;55.98
67064;SHT30;58476;48.072;11.970;2023-05-10T10:36:20;22.58;56.07
67064;SHT30;58476;48.072;11.970;2023-05-10T10:41:27;22.54;56.20
67064;SHT30;58476;48.072;11.970;2023-05-10T10:54:41;22.53;56.34
67064;SHT30;58476;48.072;11.970;2023-05-10T10:57:13;22.50;56.58
67064;SHT30;58476;48.072;11.970;2023-05-10T10:59:42;22.48;56.46
67064;SHT30;58476;48.072;11.970;2023-05-10T11:02:07;22.50;55.87
67064;SHT30;58476;48.072;11.970;2023-05-10T11:04:41;22.48;56.10
67064;SHT30;58476;48.072;11.970;2023-05-10T11:07:16;22.48;56.05
67064;SHT30;58476;48.072;11.970;2023-05-10T11:09:42;22.47;55.94
67064;SHT30;58476;48.072;11.970;2023-05-10T11:12:08;22.47;55.94
67064;SHT30;58476;48.072;11.970;2023-05-10T11:14:34;22.47;55.88
67064;SHT30;58476;48.072;11.970;2023-05-10T11:17:01;22.46;56.07
67064;SHT30;58476;48.072;11.970;2023-05-10T11:19:29;22.44;56.01
67064;SHT30;58476;48.072;11.970;2023-05-10T11:24:29;22.47;56.07
67064;SHT30;58476;48.072;11.970;2023-05-10T11:26:54;22.48;56.04
67064;SHT30;58476;48.072;11.970;2023-05-10T11:29:20;22.51;55.98
67064;SHT30;58476;48.072;11.970;2023-05-10T11:31:46;22.54;55.90
67064;SHT30;58476;48.072;11.970;2023-05-10T11:34:26;22.60;55.97
67064;SHT30;58476;48.072;11.970;2023-05-10T11:36:53;22.63;55.85
67064;SHT30;58476;48.072;11.970;2023-05-10T11:39:18;22.63;55.83
67064;SHT30;58476;48.072;11.970;2023-05-10T11:41:48;22.68;55.86
67064;SHT30;58476;48.072;11.970;2023-05-10T11:44:13;22.74;56.10
67064;SHT30;58476;48.072;11.970;2023-05-10T11:46:38;22.72;55.80
67064;SHT30;58476;48.072;11.970;2023-05-10T11:49:04;22.74;55.89
67064;SHT30;58476;48.072;11.970;2023-05-10T11:51:33;22.78;55.94
67064;SHT30;58476;48.072;11.970;2023-05-10T11:53:59;22.79;55.97
67064;SHT30;58476;48.072;11.970;2023-05-10T11:56:24;22.83;55.93
67064;SHT30;58476;48.072;11.970;2023-05-10T11:58:55;22.84;56.00
67064;SHT30;58476;48.072;11.970;2023-05-10T12:01:21;22.87;55.97
67064;SHT30;58476;48.072;11.970;2023-05-10T12:03:47;22.83;55.96
67064;SHT30;58476;48.072;11.970;2023-05-10T12:06:13;22.90;55.82
67064;SHT30;58476;48.072;11.970;2023-05-10T12:08:44;22.91;55.75
67064;SHT30;58476;48.072;11.970;2023-05-10T12:11:10;22.91;55.31
67064;SHT30;58476;48.072;11.970;2023-05-10T12:13:40;22.90;55.50
67064;SHT30;58476;48.072;11.970;2023-05-10T12:16:28;22.95;56.26
67064;SHT30;58476;48.072;11.970;2023-05-10T12:18:56;22.92;56.12
67064;SHT30;58476;48.072;11.970;2023-05-10T12:21:22;22.98;55.99
67064;SHT30;58476;48.072;11.970;2023-05-10T12:23:52;23.01;56.23
67064;SHT30;58476;48.072;11.970;2023-05-10T12:26:18;23.01;55.90
67064;SHT30;58476;48.072;11.970;2023-05-10T12:28:46;23.06;56.01
67064;SHT30;58476;48.072;11.970;2023-05-10T12:31:11;22.99;56.03
67064;SHT30;58476;48.072;11.970;2023-05-10T12:33:38;22.99;55.79
67064;SHT30;58476;48.072;11.970;2023-05-10T12:36:04;22.92;56.02
67064;SHT30;58476;48.072;11.970;2023-05-10T12:38:33;22.95;55.98
67064;SHT30;58476;48.072;11.970;2023-05-10T12:41:03;22.92;56.05
67064;SHT30;58476;48.072;11.970;2023-05-10T12:43:28;22.95;56.01
67064;SHT30;58476;48.072;11.970;2023-05-10T12:45:54;22.98;55.77
67064;SHT30;58476;48.072;11.970;2023-05-10T12:48:20;22.92;55.88
67064;SHT30;58476;48.072;11.970;2023-05-10T12:50:45;22.95;56.16
67064;SHT30;58476;48.072;11.970;2023-05-10T12:53:13;22.94;56.09
67064;SHT30;58476;48.072;11.970;2023-05-10T12:55:40;22.94;56.15
67064;SHT30;58476;48.072;11.970;2023-05-10T12:58:05;22.96;55.95
67064;SHT30;58476;48.072;11.970;2023-05-10T13:00:31;22.94;56.18
67064;SHT30;58476;48.072;11.970;2023-05-10T13:02:56;22.90;56.45
67064;SHT30;58476;48.072;11.970;2023-05-10T13:05:21;22.90;56.44
67064;SHT30;58476;48.072;11.970;2023-05-10T13:07:47;22.88;56.57
67064;SHT30;58476;48.072;11.970;2023-05-10T13:10:12;22.83;56.54
67064;SHT30;58476;48.072;11.970;2023-05-10T13:12:37;22.84;56.44
67064;SHT30;58476;48.072;11.970;2023-05-10T13:15:03;22.81;56.57
67064;SHT30;58476;48.072;11.970;2023-05-10T13:17:29;22.84;56.33
67064;SHT30;58476;48.072;11.970;2023-05-10T13:19:54;22.83;56.58
67064;SHT30;58476;48.072;11.970;2023-05-10T13:22:19;22.83;56.72
67064;SHT30;58476;48.072;11.970;2023-05-10T13:24:45;22.84;56.97
67064;SHT30;58476;48.072;11.970;2023-05-10T13:27:10;22.83;57.05
67064;SHT30;58476;48.072;11.970;2023-05-10T13:29:36;22.87;57.17
67064;SHT30;58476;48.072;11.970;2023-05-10T13:32:01;22.79;57.08
67064;SHT30;58476;48.072;11.970;2023-05-10T13:34:27;22.83;57.32
67064;SHT30;58476;48.072;11.970;2023-05-10T13:36:53;22.83;57.29
67064;SHT30;58476;48.072;11.970;2023-05-10T13:39:18;22.83;57.23
67064;SHT30;58476;48.072;11.970;2023-05-10T13:41:44;22.84;57.63
67064;SHT30;58476;48.072;11.970;2023-05-10T13:44:12;22.79;57.61
67064;SHT30;58476;48.072;11.970;2023-05-10T13:46:37;22.77;57.40
67064;SHT30;58476;48.072;11.970;2023-05-10T13:49:03;22.77;57.44
67064;SHT30;58476;48.072;11.970;2023-05-10T13:51:28;22.77;57.48
67064;SHT30;58476;48.072;11.970;2023-05-10T13:53:53;22.75;57.36
67064;SHT30;58476;48.072;11.970;2023-05-10T13:56:19;22.75;57.33
67064;SHT30;58476;48.072;11.970;2023-05-10T13:58:44;22.74;57.37
67064;SHT30;58476;48.072;11.970;2023-05-10T14:01:09;22.77;57.33
67064;SHT30;58476;48.072;11.970;2023-05-10T14:03:35;22.78;57.24
67064;SHT30;58476;48.072;11.970;2023-05-10T14:06:00;22.84;56.85
67064;SHT30;58476;48.072;11.970;2023-05-10T14:08:25;22.88;56.83
67064;SHT30;58476;48.072;11.970;2023-05-10T14:10:51;22.87;56.73
67064;SHT30;58476;48.072;11.970;2023-05-10T14:13:16;22.90;56.71
67064;SHT30;58476;48.072;11.970;2023-05-10T14:15:41;22.90;56.76
67064;SHT30;58476;48.072;11.970;2023-05-10T14:18:07;22.94;56.61
67064;SHT30;58476;48.072;11.970;2023-05-10T14:20:32;22.98;56.59
67064;SHT30;58476;48.072;11.970;2023-05-10T14:22:57;22.98;56.57
67064;SHT30;58476;48.072;11.970;2023-05-10T14:25:23;22.98;56.68
67064;SHT30;58476;48.072;11.970;2023-05-10T14:27:48;23.02;56.62
67064;SHT30;58476;48.072;11.970;2023-05-10T14:30:14;22.99;56.51
67064;SHT30;58476;48.072;11.970;2023-05-10T14:32:39;22.98;56.55
67064;SHT30;58476;48.072;11.970;2023-05-10T14:35:05;23.02;56.55
67064;SHT30;58476;48.072;11.970;2023-05-10T14:37:31;23.05;56.44
67064;SHT30;58476;48.072;11.970;2023-05-10T14:39:56;23.04;56.56
67064;SHT30;58476;48.072;11.970;2023-05-10T14:42:21;23.01;56.57
67064;SHT30;58476;48.072;11.970;2023-05-10T14:44:47;23.01;56.70
67064;SHT30;58476;48.072;11.970;2023-05-10T14:47:12;22.99;56.66
67064;SHT30;58476;48.072;11.970;2023-05-10T14:49:37;23.05;56.80
67064;SHT30;58476;48.072;11.970;2023-05-10T14:52:03;23.11;56.79
67064;SHT30;58476;48.072;11.970;2023-05-10T14:54:28;23.09;56.50
67064;SHT30;58476;48.072;11.970;2023-05-10T14:56:53;23.02;56.65
67064;SHT30;58476;48.072;11.970;2023-05-10T14:59:20;22.98;56.65
67064;SHT30;58476;48.072;11.970;2023-05-10T15:01:45;22.98;56.76
67064;SHT30;58476;48.072;11.970;2023-05-10T15:04:10;22.92;56.91
67064;SHT30;58476;48.072;11.970;2023-05-10T15:06:36;22.88;57.01
67064;SHT30;58476;48.072;11.970;2023-05-10T15:09:02;22.88;57.07
67064;SHT30;58476;48.072;11.970;2023-05-10T15:11:27;22.88;57.13
67064;SHT30;58476;48.072;11.970;2023-05-10T15:13:53;22.84;56.96
67064;SHT30;58476;48.072;11.970;2023-05-10T15:16:18;22.81;56.87
67064;SHT30;58476;48.072;11.970;2023-05-10T15:18:44;22.77;56.79
67064;SHT30;58476;48.072;11.970;2023-05-10T15:21:09;22.79;56.74
67064;SHT30;58476;48.072;11.970;2023-05-10T15:23:35;22.75;56.83
67064;SHT30;58476;48.072;11.970;2023-05-10T15:26:01;22.74;56.84
67064;SHT30;58476;48.072;11.970;2023-05-10T15:28:26;22.69;56.89
67064;SHT30;58476;48.072;11.970;2023-05-10T15:30:51;22.71;56.92
67064;SHT30;58476;48.072;11.970;2023-05-10T15:33:17;22.71;56.48
67064;SHT30;58476;48.072;11.970;2023-05-10T15:35:42;22.65;56.71
67064;SHT30;58476;48.072;11.970;2023-05-10T15:38:09;22.64;56.76
67064;SHT30;58476;48.072;11.970;2023-05-10T15:40:34;22.65;56.61
67064;SHT30;58476;48.072;11.970;2023-05-10T15:42:59;22.61;56.64